createdAt,value
2017-03-16T00:00:24.000Z,1022.55
2017-03-16T00:01:19.006Z,1022.57
2017-03-16T00:02:20.021Z,1022.54
2017-03-16T00:03:20.058Z,1022.54
2017-03-16T00:04:20.091Z,1022.54
2017-03-16T00:05:15.109Z,1022.53
2017-03-16T00:06:09.156Z,1022.55
2017-03-16T00:07:10.141Z,1022.57
2017-03-16T00:08:10.193Z,1022.60
2017-03-16T00:08:59.229Z,1022.59
2017-03-16T00:09:54.260Z,1022.58
2017-03-16T00:10:49.293Z,1022.57
2017-03-16T00:11:43.272Z,1022.56
2017-03-16T00:12:38.396Z,1022.55
2017-03-16T00:13:44.359Z,1022.55
2017-03-16T00:14:44.430Z,1022.54
2017-03-16T00:15:38.457Z,1022.53
2017-03-16T00:16:39.497Z,1022.56
2017-03-16T00:17:39.454Z,1022.54
2017-03-16T00:18:34.495Z,1022.51
2017-03-16T00:19:34.638Z,1022.41
2017-03-16T00:20:28.541Z,1022.41
2017-03-16T00:21:28.543Z,1022.39
2017-03-16T00:22:23.550Z,1022.37
2017-03-16T00:23:18.641Z,1022.36
2017-03-16T00:24:18.660Z,1022.34
2017-03-16T00:25:13.708Z,1022.35
2017-03-16T00:26:08.649Z,1022.34
2017-03-16T00:27:09.674Z,1022.35
2017-03-16T00:28:09.757Z,1022.31
2017-03-16T00:29:09.718Z,1022.32
2017-03-16T00:30:04.847Z,1022.36
2017-03-16T00:30:58.867Z,1022.32
2017-03-16T00:31:59.843Z,1022.34
2017-03-16T00:32:59.956Z,1022.29
2017-03-16T00:33:59.924Z,1022.31
2017-03-16T00:34:54.889Z,1022.28
2017-03-16T00:35:49.003Z,1022.25
2017-03-16T00:36:49.033Z,1022.18
2017-03-16T00:37:44.022Z,1022.19
2017-03-16T00:38:39.043Z,1022.14
2017-03-16T00:39:40.039Z,1022.14
2017-03-16T00:40:40.117Z,1022.15
2017-03-16T00:41:40.124Z,1022.10
2017-03-16T00:42:35.178Z,1022.12
2017-03-16T00:43:35.141Z,1022.12
2017-03-16T00:44:35.218Z,1022.14
2017-03-16T00:45:29.267Z,1022.14
2017-03-16T00:46:29.249Z,1022.16
2017-03-16T00:47:24.337Z,1022.15
2017-03-16T00:48:30.409Z,1022.17
2017-03-16T00:49:25.379Z,1022.13
2017-03-16T00:50:19.377Z,1022.15
2017-03-16T00:51:19.424Z,1022.14
2017-03-16T00:52:19.436Z,1022.13
2017-03-16T00:53:14.431Z,1022.10
2017-03-16T00:54:08.532Z,1022.08
2017-03-16T00:55:08.524Z,1022.06
2017-03-16T00:56:03.535Z,1022.01
2017-03-16T00:57:03.535Z,1021.98
2017-03-16T00:58:03.611Z,1021.99
2017-03-16T00:59:09.633Z,1021.96
2017-03-16T01:00:04.629Z,1021.91
2017-03-16T01:01:04.669Z,1021.95
2017-03-16T01:01:59.673Z,1021.90
2017-03-16T01:02:59.703Z,1021.90
2017-03-16T01:03:59.716Z,1021.87
2017-03-16T01:04:59.767Z,1021.93
2017-03-16T01:05:53.739Z,1021.90
2017-03-16T01:06:54.814Z,1021.86
2017-03-16T01:07:55.833Z,1021.83
2017-03-16T01:08:50.858Z,1021.85
2017-03-16T01:09:44.958Z,1021.81
2017-03-16T01:10:44.945Z,1021.85
2017-03-16T01:11:39.967Z,1021.82
2017-03-16T01:12:45.961Z,1021.81
2017-03-16T01:13:41.040Z,1021.82
2017-03-16T01:14:35.033Z,1021.79
2017-03-16T01:15:36.046Z,1021.81
2017-03-16T01:16:36.088Z,1021.80
2017-03-16T01:17:37.080Z,1021.78
2017-03-16T01:18:31.094Z,1021.77
2017-03-16T01:19:32.087Z,1021.81
2017-03-16T01:20:32.165Z,1021.75
2017-03-16T01:21:27.317Z,1021.78
2017-03-16T01:22:27.211Z,1021.78
2017-03-16T01:23:21.283Z,1021.79
2017-03-16T01:24:21.308Z,1021.75
2017-03-16T01:25:16.274Z,1021.72
2017-03-16T01:26:11.314Z,1021.71
2017-03-16T01:27:11.346Z,1021.69
2017-03-16T01:28:06.405Z,1021.69
2017-03-16T01:29:01.380Z,1021.70
2017-03-16T01:30:02.452Z,1021.72
2017-03-16T01:31:03.445Z,1021.70
2017-03-16T01:31:58.516Z,1021.71
2017-03-16T01:32:52.540Z,1021.70
2017-03-16T01:33:52.506Z,1021.64
2017-03-16T01:34:52.551Z,1021.66
2017-03-16T01:35:47.574Z,1021.64
2017-03-16T01:36:41.651Z,1021.59
2017-03-16T01:37:41.650Z,1021.62
2017-03-16T01:38:36.701Z,1021.61
2017-03-16T01:39:31.698Z,1021.61
2017-03-16T01:40:32.756Z,1021.58
2017-03-16T01:41:32.749Z,1021.57
2017-03-16T01:42:32.793Z,1021.57
2017-03-16T01:43:27.798Z,1021.55
2017-03-16T01:44:21.827Z,1021.58
2017-03-16T01:45:22.889Z,1021.55
2017-03-16T01:46:22.868Z,1021.53
2017-03-16T01:47:22.908Z,1021.54
2017-03-16T01:48:17.938Z,1021.50
2017-03-16T01:49:12.009Z,1021.49
2017-03-16T01:50:11.985Z,1021.52
2017-03-16T01:51:07.052Z,1021.49
2017-03-16T01:52:02.090Z,1021.47
2017-03-16T01:53:03.057Z,1021.46
2017-03-16T01:54:03.126Z,1021.40
2017-03-16T01:55:03.111Z,1021.42
2017-03-16T01:55:58.151Z,1021.40
2017-03-16T01:56:52.242Z,1021.42
2017-03-16T01:57:53.245Z,1021.38
2017-03-16T01:58:53.271Z,1021.35
2017-03-16T01:59:53.260Z,1021.36
2017-03-16T02:00:48.320Z,1021.35
2017-03-16T02:01:42.332Z,1021.35
2017-03-16T02:02:42.363Z,1021.32
2017-03-16T02:03:37.354Z,1021.36
2017-03-16T02:04:32.408Z,1021.30
2017-03-16T02:05:33.368Z,1021.33
2017-03-16T02:06:33.423Z,1021.32
2017-03-16T02:07:33.417Z,1021.31
2017-03-16T02:08:28.520Z,1021.33
2017-03-16T02:09:22.525Z,1021.33
2017-03-16T02:10:22.593Z,1021.31
2017-03-16T02:11:17.569Z,1021.30
2017-03-16T02:12:17.580Z,1021.25
2017-03-16T02:13:11.617Z,1021.25
2017-03-16T02:14:11.702Z,1021.22
2017-03-16T02:15:06.711Z,1021.22
2017-03-16T02:16:01.742Z,1021.21
2017-03-16T02:17:01.753Z,1021.19
2017-03-16T02:17:56.768Z,1021.19
2017-03-16T02:18:51.844Z,1021.16
2017-03-16T02:19:52.930Z,1021.15
2017-03-16T02:20:52.803Z,1021.14
2017-03-16T02:21:52.850Z,1021.19
2017-03-16T02:22:47.913Z,1021.17
2017-03-16T02:23:41.908Z,1021.15
2017-03-16T02:24:41.993Z,1021.11
2017-03-16T02:25:37.018Z,1021.09
2017-03-16T02:26:36.990Z,1021.08
2017-03-16T02:27:31.005Z,1021.05
2017-03-16T02:28:31.154Z,1021.02
2017-03-16T02:29:26.098Z,1021.07
2017-03-16T02:30:26.115Z,1021.05
2017-03-16T02:31:26.173Z,1021.03
2017-03-16T02:32:26.139Z,1021.02
2017-03-16T02:33:20.237Z,1020.99
2017-03-16T02:34:20.261Z,1021.00
2017-03-16T02:35:15.250Z,1020.98
2017-03-16T02:36:10.249Z,1020.99
2017-03-16T02:37:10.334Z,1020.98
2017-03-16T02:38:05.343Z,1020.95
2017-03-16T02:39:00.345Z,1020.93
2017-03-16T02:40:01.347Z,1020.90
2017-03-16T02:41:02.421Z,1020.86
2017-03-16T02:41:57.478Z,1020.89
2017-03-16T02:42:51.458Z,1020.89
2017-03-16T02:43:51.462Z,1020.88
2017-03-16T02:44:51.518Z,1020.89
2017-03-16T02:45:46.504Z,1020.90
2017-03-16T02:46:40.545Z,1020.86
2017-03-16T02:47:40.581Z,1020.86
2017-03-16T02:48:36.506Z,1020.87
2017-03-16T02:49:30.638Z,1020.88
2017-03-16T02:50:31.609Z,1020.84
2017-03-16T02:51:31.688Z,1020.85
2017-03-16T02:52:31.702Z,1020.82
2017-03-16T02:53:26.737Z,1020.86
2017-03-16T02:54:20.796Z,1020.85
2017-03-16T02:55:20.813Z,1020.88
2017-03-16T02:56:15.803Z,1020.81
2017-03-16T02:57:15.824Z,1020.81
2017-03-16T02:58:10.312Z,1020.81
2017-03-16T02:59:09.857Z,1020.83
2017-03-16T03:00:04.899Z,1020.81
2017-03-16T03:00:59.927Z,1020.83
2017-03-16T03:02:00.979Z,1020.83
2017-03-16T03:03:02.009Z,1020.82
2017-03-16T03:04:03.056Z,1020.82
2017-03-16T03:05:03.031Z,1020.79
2017-03-16T03:06:04.257Z,1020.84
2017-03-16T03:06:58.147Z,1020.81
2017-03-16T03:07:58.171Z,1020.79
2017-03-16T03:08:53.139Z,1020.83
2017-03-16T03:09:48.187Z,1020.79
2017-03-16T03:10:48.227Z,1020.77
2017-03-16T03:11:43.238Z,1020.79
2017-03-16T03:12:38.258Z,1020.81
2017-03-16T03:13:39.704Z,1020.81
2017-03-16T03:14:39.670Z,1020.82
2017-03-16T03:15:34.339Z,1020.80
2017-03-16T03:16:40.304Z,1020.84
2017-03-16T03:17:35.386Z,1020.80
2017-03-16T03:18:29.435Z,1020.73
2017-03-16T03:19:29.398Z,1020.77
2017-03-16T03:20:29.467Z,1020.75
2017-03-16T03:21:24.530Z,1020.71
2017-03-16T03:22:18.523Z,1020.75
2017-03-16T03:23:18.539Z,1020.73
2017-03-16T03:24:13.540Z,1020.73
2017-03-16T03:25:13.626Z,1020.75
2017-03-16T03:26:07.627Z,1020.73
2017-03-16T03:27:07.643Z,1020.71
2017-03-16T03:28:02.655Z,1020.72
2017-03-16T03:29:02.733Z,1020.68
2017-03-16T03:30:02.757Z,1020.69
2017-03-16T03:31:02.748Z,1020.69
2017-03-16T03:32:02.752Z,1020.64
2017-03-16T03:33:02.799Z,1020.64
2017-03-16T03:33:57.224Z,1020.66
2017-03-16T03:34:56.861Z,1020.66
2017-03-16T03:35:51.835Z,1020.65
2017-03-16T03:36:51.884Z,1020.71
2017-03-16T03:37:45.927Z,1020.70
2017-03-16T03:38:45.934Z,1020.69
2017-03-16T03:39:41.034Z,1020.69
2017-03-16T03:40:36.049Z,1020.72
2017-03-16T03:41:36.041Z,1020.68
2017-03-16T03:42:30.997Z,1020.68
2017-03-16T03:43:26.119Z,1020.70
2017-03-16T03:44:27.443Z,1020.65
2017-03-16T03:45:27.113Z,1020.65
2017-03-16T03:46:27.664Z,1020.65
2017-03-16T03:47:22.186Z,1020.64
2017-03-16T03:48:16.166Z,1020.63
2017-03-16T03:49:16.191Z,1020.61
2017-03-16T03:50:11.227Z,1020.64
2017-03-16T03:51:11.301Z,1020.67
2017-03-16T03:52:05.341Z,1020.68
2017-03-16T03:53:06.318Z,1020.68
2017-03-16T03:54:07.331Z,1020.71
2017-03-16T03:55:02.390Z,1020.70
2017-03-16T03:55:56.407Z,1020.71
2017-03-16T03:56:56.430Z,1020.74
2017-03-16T03:57:56.498Z,1020.70
2017-03-16T03:58:56.477Z,1020.72
2017-03-16T03:59:56.516Z,1020.69
2017-03-16T04:00:51.521Z,1020.73
2017-03-16T04:01:45.518Z,1020.71
2017-03-16T04:02:45.547Z,1020.71
2017-03-16T04:03:40.950Z,1020.67
2017-03-16T04:04:35.654Z,1020.69
2017-03-16T04:05:35.629Z,1020.65
2017-03-16T04:06:35.702Z,1020.72
2017-03-16T04:07:35.718Z,1020.66
2017-03-16T04:08:31.207Z,1020.66
2017-03-16T04:09:30.761Z,1020.66
2017-03-16T04:10:24.820Z,1020.67
2017-03-16T04:11:24.828Z,1020.65
2017-03-16T04:12:19.855Z,1020.66
2017-03-16T04:13:14.936Z,1020.62
2017-03-16T04:14:14.963Z,1020.63
2017-03-16T04:15:10.304Z,1020.64
2017-03-16T04:16:04.937Z,1020.66
2017-03-16T04:17:06.015Z,1020.65
2017-03-16T04:18:06.056Z,1020.68
2017-03-16T04:19:06.028Z,1020.66
2017-03-16T04:20:01.028Z,1020.68
2017-03-16T04:20:55.389Z,1020.64
2017-03-16T04:21:55.117Z,1020.63
2017-03-16T04:22:50.102Z,1020.62
2017-03-16T04:23:50.144Z,1020.62
2017-03-16T04:24:44.235Z,1020.63
2017-03-16T04:25:44.229Z,1020.62
2017-03-16T04:26:39.227Z,1020.60
2017-03-16T04:27:34.619Z,1020.58
2017-03-16T04:28:34.624Z,1020.60
2017-03-16T04:29:29.319Z,1020.57
2017-03-16T04:30:24.359Z,1020.58
2017-03-16T04:31:25.378Z,1020.57
2017-03-16T04:32:25.406Z,1020.54
2017-03-16T04:33:25.392Z,1020.52
2017-03-16T04:34:25.427Z,1020.51
2017-03-16T04:35:26.503Z,1020.50
2017-03-16T04:36:27.493Z,1020.50
2017-03-16T04:37:21.478Z,1020.46
2017-03-16T04:38:21.533Z,1020.46
2017-03-16T04:39:16.545Z,1020.48
2017-03-16T04:40:11.587Z,1020.46
2017-03-16T04:41:11.610Z,1020.46
2017-03-16T04:42:06.625Z,1020.47
2017-03-16T04:43:01.684Z,1020.47
2017-03-16T04:44:01.715Z,1020.42
2017-03-16T04:44:56.726Z,1020.44
2017-03-16T04:45:51.809Z,1020.45
2017-03-16T04:46:52.758Z,1020.44
2017-03-16T04:47:52.825Z,1020.46
2017-03-16T04:48:52.788Z,1020.46
2017-03-16T04:49:47.840Z,1020.45
2017-03-16T04:50:41.864Z,1020.47
2017-03-16T04:51:41.922Z,1020.44
2017-03-16T04:52:36.962Z,1020.48
2017-03-16T04:53:37.427Z,1020.46
2017-03-16T04:54:31.015Z,1020.49
2017-03-16T04:55:31.046Z,1020.48
2017-03-16T04:56:26.047Z,1020.47
2017-03-16T04:57:20.992Z,1020.45
2017-03-16T04:58:21.068Z,1020.44
2017-03-16T04:59:16.137Z,1020.47
2017-03-16T05:00:11.126Z,1020.44
2017-03-16T05:01:12.437Z,1020.40
2017-03-16T05:02:13.193Z,1020.43
2017-03-16T05:03:08.610Z,1020.42
2017-03-16T05:04:02.284Z,1020.47
2017-03-16T05:05:02.241Z,1020.48
2017-03-16T05:06:02.305Z,1020.44
2017-03-16T05:06:57.310Z,1020.48
2017-03-16T05:07:51.752Z,1020.45
2017-03-16T05:08:51.339Z,1020.46
2017-03-16T05:09:46.422Z,1020.46
2017-03-16T05:10:41.422Z,1020.44
2017-03-16T05:11:42.428Z,1020.46
2017-03-16T05:12:42.508Z,1020.43
2017-03-16T05:13:42.497Z,1020.44
2017-03-16T05:14:37.572Z,1020.47
2017-03-16T05:15:31.559Z,1020.43
2017-03-16T05:16:31.610Z,1020.43
2017-03-16T05:17:26.609Z,1020.42
2017-03-16T05:18:26.667Z,1020.43
2017-03-16T05:19:27.132Z,1020.42
2017-03-16T05:20:32.716Z,1020.38
2017-03-16T05:21:32.807Z,1020.40
2017-03-16T05:22:33.762Z,1020.41
2017-03-16T05:23:33.766Z,1020.41
2017-03-16T05:24:33.827Z,1020.40
2017-03-16T05:25:34.838Z,1020.37
2017-03-16T05:26:28.817Z,1020.38
2017-03-16T05:27:28.856Z,1020.36
2017-03-16T05:28:24.056Z,1020.35
2017-03-16T05:29:18.947Z,1020.35
2017-03-16T05:30:18.899Z,1020.38
2017-03-16T05:31:13.908Z,1020.33
2017-03-16T05:32:14.008Z,1020.33
2017-03-16T05:33:15.061Z,1020.27
2017-03-16T05:34:16.039Z,1020.29
2017-03-16T05:35:10.048Z,1020.27
2017-03-16T05:36:11.079Z,1020.28
2017-03-16T05:37:12.137Z,1020.29
2017-03-16T05:38:12.138Z,1020.23
2017-03-16T05:39:07.172Z,1020.27
2017-03-16T05:40:07.175Z,1020.28
2017-03-16T05:41:08.230Z,1020.30
2017-03-16T05:42:02.228Z,1020.30
2017-03-16T05:43:02.266Z,1020.30
2017-03-16T05:43:57.772Z,1020.27
2017-03-16T05:44:52.345Z,1020.29
2017-03-16T05:45:46.366Z,1020.27
2017-03-16T05:46:47.536Z,1020.24
2017-03-16T05:47:48.452Z,1020.25
2017-03-16T05:48:43.447Z,1020.20
2017-03-16T05:49:43.425Z,1020.23
2017-03-16T05:50:43.564Z,1020.21
2017-03-16T05:51:43.537Z,1020.21
2017-03-16T05:52:43.588Z,1020.22
2017-03-16T05:53:43.563Z,1020.27
2017-03-16T05:54:43.600Z,1020.25
2017-03-16T05:55:43.619Z,1020.19
2017-03-16T05:56:43.624Z,1020.24
2017-03-16T05:57:43.691Z,1020.26
2017-03-16T05:58:43.664Z,1020.27
2017-03-16T05:59:43.700Z,1020.25
2017-03-16T06:00:43.729Z,1020.25
2017-03-16T06:01:43.760Z,1020.24
2017-03-16T06:02:43.790Z,1020.24
2017-03-16T06:03:43.859Z,1020.22
2017-03-16T06:04:43.905Z,1020.28
2017-03-16T06:05:43.826Z,1020.23
2017-03-16T06:06:43.848Z,1020.25
2017-03-16T06:07:37.897Z,1020.22
2017-03-16T06:08:32.046Z,1020.27
2017-03-16T06:09:32.494Z,1020.23
2017-03-16T06:10:32.176Z,1020.26
2017-03-16T06:11:31.953Z,1020.25
2017-03-16T06:12:32.216Z,1020.26
2017-03-16T06:13:33.052Z,1020.31
2017-03-16T06:14:28.107Z,1020.31
2017-03-16T06:15:22.127Z,1020.26
2017-03-16T06:16:22.114Z,1020.28
2017-03-16T06:17:17.121Z,1020.24
2017-03-16T06:18:12.178Z,1020.27
2017-03-16T06:19:12.263Z,1020.20
2017-03-16T06:20:07.272Z,1020.22
2017-03-16T06:21:02.574Z,1020.26
2017-03-16T06:21:56.302Z,1020.26
2017-03-16T06:22:56.334Z,1020.24
2017-03-16T06:23:51.430Z,1020.19
2017-03-16T06:24:51.407Z,1020.18
2017-03-16T06:25:51.420Z,1020.18
2017-03-16T06:26:51.409Z,1020.21
2017-03-16T06:27:45.488Z,1020.23
2017-03-16T06:28:45.536Z,1020.21
2017-03-16T06:29:40.469Z,1020.24
2017-03-16T06:30:35.632Z,1020.26
2017-03-16T06:31:29.621Z,1020.27
2017-03-16T06:32:30.607Z,1020.25
2017-03-16T06:33:31.628Z,1020.24
2017-03-16T06:34:26.693Z,1020.27
2017-03-16T06:35:26.740Z,1020.27
2017-03-16T06:36:32.705Z,1020.27
2017-03-16T06:37:27.727Z,1020.27
2017-03-16T06:38:21.790Z,1020.29
2017-03-16T06:39:21.825Z,1020.27
2017-03-16T06:40:16.861Z,1020.32
2017-03-16T06:41:11.846Z,1020.30
2017-03-16T06:42:11.871Z,1020.31
2017-03-16T06:43:06.995Z,1020.30
2017-03-16T06:44:02.001Z,1020.33
2017-03-16T06:44:56.030Z,1020.34
2017-03-16T06:45:44.046Z,1020.33
2017-03-16T06:46:32.049Z,1020.33
2017-03-16T06:47:21.079Z,1020.34
2017-03-16T06:48:09.503Z,1020.29
2017-03-16T06:48:58.223Z,1020.33
2017-03-16T06:49:58.270Z,1020.32
2017-03-16T06:50:47.225Z,1020.35
2017-03-16T06:51:35.335Z,1020.36
2017-03-16T06:52:23.329Z,1020.35
2017-03-16T06:53:12.416Z,1020.34
2017-03-16T06:54:00.383Z,1020.34
2017-03-16T06:54:49.441Z,1020.35
2017-03-16T06:55:37.615Z,1020.34
2017-03-16T06:56:25.539Z,1020.31
2017-03-16T06:57:19.588Z,1020.32
2017-03-16T06:58:08.643Z,1020.31
2017-03-16T06:59:02.660Z,1020.34
2017-03-16T06:59:56.670Z,1020.37
2017-03-16T07:00:45.828Z,1020.35
2017-03-16T07:01:33.798Z,1020.32
2017-03-16T07:02:27.794Z,1020.31
2017-03-16T07:03:15.831Z,1020.31
2017-03-16T07:04:03.896Z,1020.30
2017-03-16T07:04:52.104Z,1020.29
2017-03-16T07:05:45.883Z,1020.33
2017-03-16T07:06:35.124Z,1020.32
2017-03-16T07:07:23.064Z,1020.29
2017-03-16T07:08:12.390Z,1020.27
2017-03-16T07:09:00.110Z,1020.28
2017-03-16T07:09:49.135Z,1020.26
2017-03-16T07:10:37.216Z,1020.26
2017-03-16T07:11:25.249Z,1020.23
2017-03-16T07:12:26.247Z,1020.26
2017-03-16T07:13:21.279Z,1020.24
2017-03-16T07:14:15.319Z,1020.25
2017-03-16T07:15:16.440Z,1020.23
2017-03-16T07:16:10.430Z,1020.26
2017-03-16T07:16:58.441Z,1020.27
2017-03-16T07:17:52.493Z,1020.25
2017-03-16T07:18:46.444Z,1020.25
2017-03-16T07:19:47.520Z,1020.26
2017-03-16T07:20:47.899Z,1020.24
2017-03-16T07:21:36.604Z,1020.22
2017-03-16T07:22:25.653Z,1020.21
2017-03-16T07:23:20.698Z,1020.22
2017-03-16T07:24:09.726Z,1020.21
2017-03-16T07:25:03.749Z,1020.24
2017-03-16T07:25:58.783Z,1020.20
2017-03-16T07:26:46.825Z,1020.17
2017-03-16T07:27:34.947Z,1020.19
2017-03-16T07:28:23.953Z,1020.21
2017-03-16T07:29:23.968Z,1020.20
2017-03-16T07:30:23.997Z,1020.22
2017-03-16T07:31:18.562Z,1020.21
2017-03-16T07:32:06.076Z,1020.22
2017-03-16T07:33:07.199Z,1020.22
2017-03-16T07:33:56.153Z,1020.25
2017-03-16T07:34:50.704Z,1020.27
2017-03-16T07:35:38.234Z,1020.25
2017-03-16T07:36:27.307Z,1020.22
2017-03-16T07:37:28.345Z,1020.24
2017-03-16T07:38:28.368Z,1020.26
2017-03-16T07:39:23.865Z,1020.24
2017-03-16T07:40:23.441Z,1020.25
2017-03-16T07:41:18.975Z,1020.25
2017-03-16T07:42:12.534Z,1020.22
2017-03-16T07:43:12.557Z,1020.22
2017-03-16T07:44:12.645Z,1020.22
2017-03-16T07:45:12.618Z,1020.23
2017-03-16T07:46:12.607Z,1020.26
2017-03-16T07:47:12.776Z,1020.25
2017-03-16T07:48:01.752Z,1020.28
2017-03-16T07:48:55.804Z,1020.24
2017-03-16T07:49:55.771Z,1020.30
2017-03-16T07:50:44.851Z,1020.25
2017-03-16T07:51:33.928Z,1020.26
2017-03-16T07:52:23.411Z,1020.25
2017-03-16T07:53:11.006Z,1020.28
2017-03-16T07:54:11.041Z,1020.24
2017-03-16T07:55:06.082Z,1020.25
2017-03-16T07:56:06.152Z,1020.26
2017-03-16T07:56:55.116Z,1020.23
2017-03-16T07:57:43.225Z,1020.25
2017-03-16T07:58:31.282Z,1020.25
2017-03-16T07:59:26.732Z,1020.29
2017-03-16T08:00:21.478Z,1020.23
2017-03-16T08:01:15.420Z,1020.25
2017-03-16T08:02:03.468Z,1020.22
2017-03-16T08:02:51.537Z,1020.27
2017-03-16T08:03:45.530Z,1020.31
2017-03-16T08:04:45.537Z,1020.30
2017-03-16T08:05:40.618Z,1020.29
2017-03-16T08:06:34.677Z,1020.30
2017-03-16T08:07:40.667Z,1020.34
2017-03-16T08:08:28.742Z,1020.28
2017-03-16T08:09:24.228Z,1020.26
2017-03-16T08:10:12.845Z,1020.30
2017-03-16T08:11:01.846Z,1020.25
2017-03-16T08:11:56.163Z,1020.25
2017-03-16T08:12:49.914Z,1020.28
2017-03-16T08:13:45.012Z,1020.25
2017-03-16T08:14:33.042Z,1020.29
2017-03-16T08:15:21.087Z,1020.25
2017-03-16T08:16:22.248Z,1020.22
2017-03-16T08:17:16.164Z,1020.19
2017-03-16T08:18:04.237Z,1020.18
2017-03-16T08:18:58.508Z,1020.21
2017-03-16T08:19:46.325Z,1020.21
2017-03-16T08:20:46.364Z,1020.18
2017-03-16T08:21:40.421Z,1020.20
2017-03-16T08:22:46.462Z,1020.22
2017-03-16T08:23:40.457Z,1020.22
2017-03-16T08:24:28.492Z,1020.26
2017-03-16T08:25:22.564Z,1020.24
2017-03-16T08:26:16.669Z,1020.25
2017-03-16T08:27:05.641Z,1020.21
2017-03-16T08:27:53.688Z,1020.22
2017-03-16T08:28:47.704Z,1020.21
2017-03-16T08:29:48.773Z,1020.22
2017-03-16T08:30:42.870Z,1020.20
2017-03-16T08:31:42.870Z,1020.19
2017-03-16T08:32:38.106Z,1020.17
2017-03-16T08:33:32.906Z,1020.16
2017-03-16T08:34:27.044Z,1020.16
2017-03-16T08:35:27.064Z,1020.17
2017-03-16T08:36:22.129Z,1020.19
2017-03-16T08:37:16.130Z,1020.19
2017-03-16T08:38:16.207Z,1020.18
2017-03-16T08:39:10.284Z,1020.18
2017-03-16T08:40:11.243Z,1020.21
2017-03-16T08:41:01.003Z,1020.20
2017-03-16T08:41:49.381Z,1020.15
2017-03-16T08:42:38.424Z,1020.18
2017-03-16T08:43:27.475Z,1020.21
2017-03-16T08:44:27.515Z,1020.16
2017-03-16T08:45:21.533Z,1020.18
2017-03-16T08:46:21.596Z,1020.17
2017-03-16T08:47:21.632Z,1020.10
2017-03-16T08:48:21.699Z,1020.10
2017-03-16T08:49:15.723Z,1020.07
2017-03-16T08:50:15.740Z,1020.09
2017-03-16T08:51:04.774Z,1020.07
2017-03-16T08:51:53.880Z,1020.09
2017-03-16T08:52:48.924Z,1020.05
2017-03-16T08:53:37.948Z,1020.01
2017-03-16T08:54:38.043Z,1020.04
2017-03-16T08:55:33.500Z,1019.99
2017-03-16T08:56:33.467Z,1020.00
2017-03-16T08:57:33.610Z,1019.94
2017-03-16T08:58:28.217Z,1019.94
2017-03-16T08:59:28.223Z,1019.96
2017-03-16T09:00:22.242Z,1019.94
2017-03-16T09:01:16.310Z,1019.99
2017-03-16T09:02:16.332Z,1019.99
2017-03-16T09:03:16.401Z,1020.01
2017-03-16T09:04:10.461Z,1019.91
2017-03-16T09:05:04.968Z,1019.94
2017-03-16T09:05:59.543Z,1019.93
2017-03-16T09:06:47.636Z,1019.91
2017-03-16T09:07:47.614Z,1019.87
2017-03-16T09:08:42.684Z,1019.90
2017-03-16T09:09:36.896Z,1019.90
2017-03-16T09:10:24.807Z,1019.86
2017-03-16T09:11:25.841Z,1019.87
2017-03-16T09:12:14.924Z,1019.90
2017-03-16T09:13:04.028Z,1019.87
2017-03-16T09:13:52.996Z,1019.85
2017-03-16T09:14:42.049Z,1019.86
2017-03-16T09:15:37.075Z,1019.85
2017-03-16T09:16:31.202Z,1019.82
2017-03-16T09:17:31.165Z,1019.82
2017-03-16T09:18:26.267Z,1019.77
2017-03-16T09:19:20.345Z,1019.81
2017-03-16T09:20:15.358Z,1019.82
2017-03-16T09:21:10.317Z,1019.75
2017-03-16T09:21:58.437Z,1019.78
2017-03-16T09:22:58.475Z,1019.80
2017-03-16T09:23:52.531Z,1019.79
2017-03-16T09:24:52.585Z,1019.80
2017-03-16T09:25:46.613Z,1019.68
2017-03-16T09:26:41.622Z,1019.74
2017-03-16T09:27:41.649Z,1019.73
2017-03-16T09:28:35.731Z,1019.72
2017-03-16T09:29:35.802Z,1019.69
2017-03-16T09:30:29.856Z,1019.71
2017-03-16T09:31:17.918Z,1019.71
2017-03-16T09:32:12.001Z,1019.72
2017-03-16T09:33:06.033Z,1019.69
2017-03-16T09:34:00.044Z,1019.75
2017-03-16T09:35:00.096Z,1019.76
2017-03-16T09:35:54.158Z,1019.68
2017-03-16T09:36:43.215Z,1019.68
2017-03-16T09:37:43.241Z,1019.62
2017-03-16T09:38:37.317Z,1019.65
2017-03-16T09:39:31.353Z,1019.62
2017-03-16T09:40:25.410Z,1019.59
2017-03-16T09:41:20.452Z,1019.57
2017-03-16T09:42:20.516Z,1019.56
2017-03-16T09:43:15.510Z,1019.58
2017-03-16T09:44:03.592Z,1019.54
2017-03-16T09:45:03.669Z,1019.53
2017-03-16T09:45:57.656Z,1019.54
2017-03-16T09:46:57.749Z,1019.56
2017-03-16T09:47:52.784Z,1019.53
2017-03-16T09:48:46.813Z,1019.54
2017-03-16T09:49:42.356Z,1019.56
2017-03-16T09:50:35.951Z,1019.52
2017-03-16T09:51:30.034Z,1019.53
2017-03-16T09:52:30.058Z,1019.54
2017-03-16T09:53:19.019Z,1019.53
2017-03-16T09:54:08.131Z,1019.60
2017-03-16T09:55:03.173Z,1019.53
2017-03-16T09:55:52.261Z,1019.48
2017-03-16T09:56:46.428Z,1019.47
2017-03-16T09:57:40.336Z,1019.41
2017-03-16T09:58:34.350Z,1019.46
2017-03-16T09:59:28.400Z,1019.47
2017-03-16T10:00:22.496Z,1019.39
2017-03-16T10:01:11.529Z,1019.40
2017-03-16T10:02:05.555Z,1019.30
2017-03-16T10:02:59.608Z,1019.35
2017-03-16T10:03:49.123Z,1019.34
2017-03-16T10:04:42.724Z,1019.32
2017-03-16T10:05:37.740Z,1019.30
2017-03-16T10:06:31.824Z,1019.39
2017-03-16T10:07:31.877Z,1019.27
2017-03-16T10:08:20.866Z,1019.34
2017-03-16T10:09:16.388Z,1019.24
2017-03-16T10:10:10.028Z,1019.25
2017-03-16T10:10:59.070Z,1019.28
2017-03-16T10:11:53.088Z,1019.32
2017-03-16T10:12:48.774Z,1019.29
2017-03-16T10:13:37.272Z,1019.24
2017-03-16T10:14:26.284Z,1019.23
2017-03-16T10:15:26.338Z,1019.29
2017-03-16T10:16:26.316Z,1019.25
2017-03-16T10:17:26.420Z,1019.28
2017-03-16T10:18:26.445Z,1019.23
2017-03-16T10:19:21.456Z,1019.18
2017-03-16T10:20:15.539Z,1019.23
2017-03-16T10:21:09.591Z,1019.19
2017-03-16T10:21:58.607Z,1019.10
2017-03-16T10:22:58.646Z,1019.08
2017-03-16T10:23:52.924Z,1019.07
2017-03-16T10:24:46.777Z,1019.05
2017-03-16T10:25:40.818Z,1019.08
2017-03-16T10:26:29.877Z,1019.09
2017-03-16T10:27:24.976Z,1019.03
2017-03-16T10:28:19.059Z,1019.01
2017-03-16T10:29:13.012Z,1019.08
2017-03-16T10:30:13.080Z,1019.09
2017-03-16T10:31:08.159Z,1019.19
2017-03-16T10:32:02.197Z,1019.10
2017-03-16T10:32:50.402Z,1019.06
2017-03-16T10:33:44.231Z,1019.02
2017-03-16T10:34:33.301Z,1018.99
2017-03-16T10:35:28.371Z,1019.01
2017-03-16T10:36:17.403Z,1018.99
2017-03-16T10:37:12.475Z,1018.98
2017-03-16T10:38:07.554Z,1018.95
2017-03-16T10:38:55.492Z,1019.00
2017-03-16T10:39:49.583Z,1018.95
2017-03-16T10:40:43.705Z,1018.96
2017-03-16T10:41:37.734Z,1018.98
2017-03-16T10:42:37.732Z,1018.97
2017-03-16T10:43:32.830Z,1018.91
2017-03-16T10:44:27.116Z,1018.80
2017-03-16T10:45:21.930Z,1018.84
2017-03-16T10:46:09.929Z,1018.83
2017-03-16T10:46:58.986Z,1018.82
2017-03-16T10:47:48.042Z,1018.82
2017-03-16T10:48:42.100Z,1018.85
2017-03-16T10:49:36.149Z,1018.84
2017-03-16T10:50:25.704Z,1018.83
2017-03-16T10:51:14.324Z,1018.81
2017-03-16T10:52:03.347Z,1018.78
2017-03-16T10:53:03.365Z,1018.79
2017-03-16T10:53:58.639Z,1018.78
2017-03-16T10:54:52.447Z,1018.76
2017-03-16T10:55:46.516Z,1018.79
2017-03-16T10:56:35.580Z,1018.79
2017-03-16T10:57:24.632Z,1018.78
2017-03-16T10:58:19.697Z,1018.74
2017-03-16T10:59:08.711Z,1018.79
2017-03-16T10:59:57.167Z,1018.75
2017-03-16T11:00:45.841Z,1018.66
2017-03-16T11:01:39.901Z,1018.70
2017-03-16T11:02:29.383Z,1018.71
2017-03-16T11:03:17.007Z,1018.71
2017-03-16T11:04:05.979Z,1018.66
2017-03-16T11:05:11.135Z,1018.69
2017-03-16T11:06:06.135Z,1018.62
2017-03-16T11:07:01.509Z,1018.61
2017-03-16T11:07:50.226Z,1018.58
2017-03-16T11:08:44.258Z,1018.59
2017-03-16T11:09:39.340Z,1018.49
2017-03-16T11:10:33.340Z,1018.48
2017-03-16T11:11:21.422Z,1018.49
2017-03-16T11:12:21.486Z,1018.50
2017-03-16T11:13:09.531Z,1018.51
2017-03-16T11:14:04.526Z,1018.48
2017-03-16T11:15:04.573Z,1018.45
2017-03-16T11:15:58.639Z,1018.45
2017-03-16T11:16:52.801Z,1018.38
2017-03-16T11:17:41.813Z,1018.37